createdAt,value
2022-10-11T00:00:21.009Z,65.90
2022-10-11T00:02:48.965Z,66.62
2022-10-11T00:05:16.839Z,66.27
2022-10-11T00:07:44.447Z,65.93
2022-10-11T00:10:12.443Z,66.94
2022-10-11T00:12:40.074Z,66.50
2022-10-11T00:15:08.905Z,66.21
2022-10-11T00:17:36.755Z,66.66
2022-10-11T00:20:05.030Z,67.23
2022-10-11T00:22:32.737Z,66.88
2022-10-11T00:25:00.786Z,66.87
2022-10-11T00:27:28.545Z,67.02
2022-10-11T00:29:56.416Z,67.13
2022-10-11T00:32:24.417Z,67.02
2022-10-11T00:34:52.107Z,67.05
2022-10-11T00:37:20.468Z,67.10
2022-10-11T00:39:49.439Z,67.60
2022-10-11T00:42:17.849Z,68.64
2022-10-11T00:44:49.576Z,67.74
2022-10-11T00:47:22.668Z,67.42
2022-10-11T00:49:53.792Z,67.90
2022-10-11T00:52:38.358Z,68.22
2022-10-11T00:55:09.860Z,68.34
2022-10-11T00:57:40.783Z,68.03
2022-10-11T01:00:11.556Z,68.02
2022-10-11T01:02:39.487Z,68.58
2022-10-11T01:05:28.205Z,68.58
2022-10-11T01:08:00.217Z,68.78
2022-10-11T01:10:28.431Z,68.63
2022-10-11T01:13:11.244Z,69.12
2022-10-11T01:16:12.012Z,69.03
2022-10-11T01:18:59.421Z,69.51
2022-10-11T01:21:48.043Z,68.99
2022-10-11T01:24:41.695Z,69.76
2022-10-11T01:27:28.364Z,69.35
2022-10-11T01:30:01.728Z,69.54
2022-10-11T01:32:54.755Z,69.21
2022-10-11T01:35:35.327Z,68.97
2022-10-11T01:38:11.099Z,69.02
2022-10-11T01:41:00.165Z,69.64
2022-10-11T01:43:29.017Z,69.72
2022-10-11T01:45:58.212Z,70.24
2022-10-11T01:48:25.803Z,69.97
2022-10-11T01:50:55.803Z,70.00
2022-10-11T01:53:35.505Z,69.92
2022-10-11T01:56:27.341Z,70.15
2022-10-11T01:59:23.431Z,69.93
2022-10-11T02:02:24.527Z,70.11
2022-10-11T02:05:06.410Z,70.98
2022-10-11T02:07:37.124Z,71.05
2022-10-11T02:10:26.917Z,72.01
2022-10-11T02:13:16.654Z,71.38
2022-10-11T02:15:45.422Z,71.51
2022-10-11T02:18:19.178Z,71.17
2022-10-11T02:20:47.904Z,70.88
2022-10-11T02:23:20.733Z,70.86
2022-10-11T02:25:49.230Z,71.09
2022-10-11T02:28:22.206Z,71.56
2022-10-11T02:30:51.335Z,71.21
2022-10-11T02:33:31.976Z,71.51
2022-10-11T02:36:05.917Z,71.72
2022-10-11T02:38:43.479Z,71.66
2022-10-11T02:41:29.987Z,72.48
2022-10-11T02:44:06.779Z,72.35
2022-10-11T02:46:35.726Z,71.75
2022-10-11T02:49:03.587Z,71.73
2022-10-11T02:51:31.287Z,71.53
2022-10-11T02:53:59.440Z,71.86
2022-10-11T02:56:27.104Z,72.28
2022-10-11T02:58:54.949Z,72.33
2022-10-11T03:01:23.184Z,72.46
2022-10-11T03:03:50.922Z,73.06
2022-10-11T03:06:18.776Z,73.94
2022-10-11T03:08:46.767Z,73.35
2022-10-11T03:11:14.499Z,72.74
2022-10-11T03:13:42.220Z,72.79
2022-10-11T03:16:10.488Z,73.19
2022-10-11T03:18:38.668Z,73.53
2022-10-11T03:21:06.466Z,73.46
2022-10-11T03:23:35.164Z,73.49
2022-10-11T03:26:03.295Z,74.21
2022-10-11T03:28:31.528Z,73.82
2022-10-11T03:30:59.867Z,73.36
2022-10-11T03:33:27.509Z,72.83
2022-10-11T03:35:55.107Z,72.51
2022-10-11T03:38:22.988Z,72.13
2022-10-11T03:40:50.993Z,72.17
2022-10-11T03:43:18.802Z,72.10
2022-10-11T03:45:46.749Z,72.18
2022-10-11T03:48:14.460Z,72.81
2022-10-11T03:50:42.276Z,72.85
2022-10-11T03:53:10.206Z,74.12
2022-10-11T03:55:39.006Z,74.20
2022-10-11T03:58:06.880Z,73.35
2022-10-11T04:00:35.262Z,73.88
2022-10-11T04:03:03.586Z,73.49
2022-10-11T04:05:31.258Z,73.03
2022-10-11T04:07:58.887Z,73.81
2022-10-11T04:10:26.949Z,73.81
2022-10-11T04:12:54.579Z,74.87
2022-10-11T04:15:22.151Z,74.40
2022-10-11T04:17:50.693Z,74.23
2022-10-11T04:20:18.906Z,74.81
2022-10-11T04:22:46.475Z,74.44
2022-10-11T04:25:14.498Z,74.66
2022-10-11T04:27:42.209Z,74.49
2022-10-11T04:30:10.692Z,74.74
2022-10-11T04:32:38.780Z,74.25
2022-10-11T04:35:06.573Z,74.63
2022-10-11T04:37:34.378Z,74.85
2022-10-11T04:40:02.300Z,76.08
2022-10-11T04:42:30.361Z,74.28
2022-10-11T04:44:57.979Z,75.17
2022-10-11T04:47:25.965Z,75.20
2022-10-11T04:49:53.751Z,75.29
2022-10-11T04:52:25.513Z,74.93
2022-10-11T04:54:54.274Z,74.76
2022-10-11T04:57:22.179Z,74.56
2022-10-11T04:59:50.501Z,74.49
2022-10-11T05:02:18.727Z,74.44
2022-10-11T05:04:46.370Z,74.84
2022-10-11T05:07:14.020Z,74.30
2022-10-11T05:09:41.974Z,74.33
2022-10-11T05:12:09.845Z,74.92
2022-10-11T05:14:37.483Z,74.52
2022-10-11T05:17:05.643Z,74.46
2022-10-11T05:19:33.390Z,74.31
2022-10-11T05:22:01.072Z,74.09
2022-10-11T05:24:29.004Z,74.23
2022-10-11T05:26:59.795Z,74.84
2022-10-11T05:29:31.058Z,74.97
2022-10-11T05:31:58.625Z,74.92
2022-10-11T05:34:26.237Z,74.83
2022-10-11T05:36:54.241Z,74.53
2022-10-11T05:39:21.920Z,74.68
2022-10-11T05:41:49.558Z,75.22
2022-10-11T05:44:17.808Z,75.47
2022-10-11T05:46:45.518Z,75.58
2022-10-11T05:49:13.122Z,75.73
2022-10-11T05:51:41.081Z,75.71
2022-10-11T05:54:08.714Z,75.91
2022-10-11T05:56:36.315Z,75.41
2022-10-11T05:59:04.657Z,75.95
2022-10-11T06:01:32.397Z,76.20
2022-10-11T06:04:00.440Z,76.29
2022-10-11T06:06:28.135Z,76.49
2022-10-11T06:08:55.673Z,75.90
2022-10-11T06:11:26.373Z,76.13
2022-10-11T06:13:55.204Z,76.38
2022-10-11T06:16:23.196Z,76.72
2022-10-11T06:18:57.460Z,76.70
2022-10-11T06:21:25.583Z,76.24
2022-10-11T06:23:59.904Z,76.33
2022-10-11T06:26:29.305Z,76.25
2022-10-11T06:28:57.460Z,75.46
2022-10-11T06:31:25.056Z,75.11
2022-10-11T06:33:52.983Z,75.02
2022-10-11T06:36:20.804Z,74.39
2022-10-11T06:38:52.107Z,74.18
2022-10-11T06:41:25.456Z,73.84
2022-10-11T06:43:53.468Z,73.07
2022-10-11T06:46:22.797Z,72.81
2022-10-11T06:48:50.890Z,71.92
2022-10-11T06:51:20.499Z,72.36
2022-10-11T06:53:52.630Z,71.75
2022-10-11T06:56:20.494Z,71.65
2022-10-11T06:58:48.495Z,71.37
2022-10-11T07:01:16.774Z,70.86
2022-10-11T07:03:44.789Z,71.66
2022-10-11T07:06:17.824Z,71.93
2022-10-11T07:08:46.013Z,71.90
2022-10-11T07:11:16.412Z,72.17
2022-10-11T07:13:49.504Z,71.94
2022-10-11T07:16:17.822Z,72.06
2022-10-11T07:18:46.289Z,71.39
2022-10-11T07:21:15.614Z,71.29
2022-10-11T07:23:43.624Z,71.25
2022-10-11T07:26:11.868Z,70.62
2022-10-11T07:28:40.334Z,69.10
2022-10-11T07:31:14.102Z,68.60
2022-10-11T07:33:41.986Z,67.95
2022-10-11T07:36:11.330Z,67.58
2022-10-11T07:38:40.453Z,67.30
2022-10-11T07:41:08.290Z,67.16
2022-10-11T07:43:37.185Z,66.54
2022-10-11T07:46:05.608Z,66.81
2022-10-11T07:48:35.203Z,66.00
2022-10-11T07:51:09.854Z,66.65
2022-10-11T07:53:48.013Z,67.01
2022-10-11T07:56:22.144Z,66.21
2022-10-11T07:58:54.938Z,66.32
2022-10-11T08:01:23.170Z,66.03
2022-10-11T08:03:51.168Z,65.68
2022-10-11T08:06:21.603Z,64.67
2022-10-11T08:08:49.458Z,65.08
2022-10-11T08:11:32.628Z,63.94
2022-10-11T08:14:00.744Z,63.40
2022-10-11T08:16:28.614Z,62.98
2022-10-11T08:18:56.549Z,63.18
2022-10-11T08:21:24.522Z,62.78
2022-10-11T08:23:52.610Z,61.92
2022-10-11T08:26:21.028Z,62.61
2022-10-11T08:28:48.804Z,62.28
2022-10-11T08:31:16.944Z,62.67
2022-10-11T08:33:44.726Z,61.74
2022-10-11T08:36:13.118Z,62.22
2022-10-11T08:38:41.481Z,60.79
2022-10-11T08:41:21.702Z,61.07
2022-10-11T08:43:55.699Z,61.34
2022-10-11T08:46:27.220Z,59.41
2022-10-11T08:48:55.285Z,60.98
2022-10-11T08:51:48.366Z,60.88
2022-10-11T08:54:19.167Z,60.38
2022-10-11T08:56:46.957Z,61.57
2022-10-11T08:59:31.458Z,60.74
2022-10-11T09:02:21.420Z,59.57
2022-10-11T09:04:51.158Z,59.40
2022-10-11T09:07:38.123Z,58.75
2022-10-11T09:10:43.464Z,57.92
2022-10-11T09:13:30.827Z,56.12
2022-10-11T09:16:02.310Z,56.66
2022-10-11T09:18:53.015Z,55.75
2022-10-11T09:21:45.812Z,58.46
2022-10-11T09:24:42.647Z,56.33
2022-10-11T09:27:19.660Z,56.42
2022-10-11T09:30:05.815Z,56.12
2022-10-11T09:32:38.794Z,55.80
2022-10-11T09:35:15.954Z,54.60
2022-10-11T09:37:56.244Z,55.75
2022-10-11T09:40:38.751Z,56.68
2022-10-11T09:43:08.036Z,56.09
2022-10-11T09:45:35.983Z,54.95
2022-10-11T09:48:05.759Z,56.33
2022-10-11T09:50:33.459Z,55.92
2022-10-11T09:53:03.783Z,54.15
2022-10-11T09:55:33.153Z,54.41
2022-10-11T09:58:02.973Z,55.91
2022-10-11T10:00:32.801Z,53.72
2022-10-11T10:03:02.817Z,53.69
2022-10-11T10:05:34.121Z,52.83
2022-10-11T10:08:11.332Z,51.82
2022-10-11T10:10:41.873Z,51.36
2022-10-11T10:13:38.993Z,52.64
2022-10-11T10:16:07.335Z,52.34
2022-10-11T10:18:48.167Z,52.13
2022-10-11T10:21:16.036Z,53.08
2022-10-11T10:23:44.247Z,53.31
2022-10-11T10:26:16.690Z,52.91
2022-10-11T10:29:10.307Z,52.15
2022-10-11T10:32:13.378Z,52.40
2022-10-11T10:35:03.494Z,52.29
2022-10-11T10:37:38.933Z,51.93
2022-10-11T10:40:16.687Z,51.18
2022-10-11T10:42:44.392Z,53.05
2022-10-11T10:45:21.106Z,52.37
2022-10-11T10:48:10.109Z,52.21
2022-10-11T10:50:55.034Z,52.51
2022-10-11T10:53:38.022Z,51.39
2022-10-11T10:56:15.743Z,50.99
2022-10-11T10:58:50.922Z,51.96
2022-10-11T11:01:31.089Z,51.10
2022-10-11T11:04:20.665Z,50.59
2022-10-11T11:06:52.183Z,49.82
2022-10-11T11:09:31.999Z,50.08
2022-10-11T11:12:05.892Z,52.20
2022-10-11T11:14:59.937Z,50.79
2022-10-11T11:17:46.633Z,50.09
2022-10-11T11:20:26.890Z,50.31
2022-10-11T11:23:13.458Z,48.97
2022-10-11T11:25:45.083Z,49.05
2022-10-11T11:28:26.471Z,49.47
2022-10-11T11:31:12.835Z,48.80
2022-10-11T11:33:52.829Z,49.43
2022-10-11T11:36:28.102Z,49.88
2022-10-11T11:38:59.573Z,50.79
2022-10-11T11:41:31.061Z,50.86
2022-10-11T11:44:16.242Z,51.71
2022-10-11T11:46:55.628Z,50.86
2022-10-11T11:49:34.357Z,52.13
2022-10-11T11:52:04.556Z,52.18
2022-10-11T11:54:54.066Z,52.37
2022-10-11T11:58:03.332Z,52.28
2022-10-11T12:00:57.562Z,52.57
2022-10-11T12:03:30.672Z,52.37
2022-10-11T12:06:13.709Z,51.23
2022-10-11T12:08:44.800Z,51.17
2022-10-11T12:11:30.568Z,50.22
2022-10-11T12:14:15.951Z,49.36
2022-10-11T12:17:05.233Z,47.96
2022-10-11T12:19:33.352Z,50.56
2022-10-11T12:22:56.837Z,50.16
2022-10-11T12:25:27.553Z,50.44
2022-10-11T12:27:55.830Z,49.26
2022-10-11T12:30:42.447Z,49.85
2022-10-11T12:33:49.881Z,50.88
2022-10-11T12:36:40.409Z,50.02
2022-10-11T12:39:20.183Z,49.82
2022-10-11T12:41:47.832Z,50.12
2022-10-11T12:44:18.363Z,50.92
2022-10-11T12:46:51.580Z,50.92
2022-10-11T12:49:25.299Z,51.30
2022-10-11T12:51:58.678Z,51.39
2022-10-11T12:54:50.443Z,51.36
2022-10-11T12:57:45.931Z,50.69
2022-10-11T13:00:27.333Z,51.07
2022-10-11T13:03:02.157Z,51.21
2022-10-11T13:05:44.784Z,51.04
2022-10-11T13:08:22.547Z,50.11
2022-10-11T13:10:51.198Z,49.75
2022-10-11T13:13:26.168Z,50.19
2022-10-11T13:15:56.385Z,49.94
2022-10-11T13:18:25.304Z,49.12
2022-10-11T13:20:53.089Z,48.29
2022-10-11T13:23:27.692Z,49.02
2022-10-11T13:25:56.955Z,48.87
2022-10-11T13:28:25.207Z,49.24
2022-10-11T13:30:54.898Z,49.37
2022-10-11T13:33:28.703Z,48.81
2022-10-11T13:35:57.275Z,49.21
2022-10-11T13:38:29.018Z,48.83
2022-10-11T13:40:58.915Z,48.93
2022-10-11T13:43:28.982Z,49.29
2022-10-11T13:46:01.586Z,49.43
2022-10-11T13:48:31.847Z,50.21
2022-10-11T13:51:06.423Z,50.14
2022-10-11T13:53:35.012Z,49.23
2022-10-11T13:56:06.246Z,50.41
2022-10-11T13:58:39.778Z,49.47
2022-10-11T14:01:19.456Z,50.36
2022-10-11T14:03:49.881Z,50.42
2022-10-11T14:06:20.945Z,50.87
2022-10-11T14:08:53.276Z,50.89
2022-10-11T14:11:38.193Z,51.16
2022-10-11T14:14:30.984Z,51.84
2022-10-11T14:17:05.202Z,51.80
2022-10-11T14:19:33.190Z,51.83
2022-10-11T14:22:00.875Z,51.83
2022-10-11T14:24:28.750Z,52.53
2022-10-11T14:26:56.960Z,53.18
2022-10-11T14:29:27.659Z,52.21
2022-10-11T14:31:56.773Z,52.46
2022-10-11T14:34:25.949Z,52.67
2022-10-11T14:36:53.722Z,52.68
2022-10-11T14:39:23.413Z,52.46
2022-10-11T14:41:52.441Z,53.06
2022-10-11T14:44:21.633Z,53.18
2022-10-11T14:46:52.439Z,53.78
2022-10-11T14:49:24.659Z,53.33
2022-10-11T14:51:56.891Z,53.08
2022-10-11T14:54:29.260Z,53.19
2022-10-11T14:56:58.816Z,53.68
2022-10-11T14:59:31.487Z,54.19
2022-10-11T15:01:59.331Z,54.60
2022-10-11T15:04:27.969Z,54.51
2022-10-11T15:06:57.662Z,55.03
2022-10-11T15:09:29.399Z,55.87
2022-10-11T15:11:57.361Z,55.59
2022-10-11T15:14:25.533Z,56.21
2022-10-11T15:16:53.589Z,56.60
2022-10-11T15:19:23.787Z,57.29
2022-10-11T15:21:54.194Z,57.32
2022-10-11T15:24:21.886Z,57.75
2022-10-11T15:26:55.179Z,58.15
2022-10-11T15:29:26.050Z,58.67
2022-10-11T15:31:56.304Z,59.84
2022-10-11T15:34:27.259Z,60.44
2022-10-11T15:36:54.890Z,60.99
2022-10-11T15:39:30.554Z,60.56
2022-10-11T15:41:58.831Z,61.61
2022-10-11T15:44:26.454Z,62.02
2022-10-11T15:46:54.153Z,62.61
2022-10-11T15:49:22.090Z,62.85
2022-10-11T15:51:49.748Z,63.00
2022-10-11T15:54:17.531Z,64.91
2022-10-11T15:56:45.523Z,65.74
2022-10-11T15:59:13.236Z,66.04
2022-10-11T16:01:40.948Z,66.82
2022-10-11T16:04:09.382Z,67.75
2022-10-11T16:06:36.895Z,68.14
2022-10-11T16:09:05.307Z,68.62
2022-10-11T16:11:33.205Z,69.10
2022-10-11T16:14:03.677Z,69.86
2022-10-11T16:16:31.245Z,69.80
2022-10-11T16:18:59.222Z,70.62
2022-10-11T16:21:26.866Z,71.33
2022-10-11T16:23:54.490Z,70.73
2022-10-11T16:26:22.403Z,71.64
2022-10-11T16:28:50.166Z,70.99
2022-10-11T16:31:18.472Z,71.67
2022-10-11T16:33:46.725Z,71.92
2022-10-11T16:36:16.684Z,72.05
2022-10-11T16:38:44.449Z,71.56
2022-10-11T16:41:12.517Z,72.73
2022-10-11T16:43:40.286Z,72.84
2022-10-11T16:46:08.337Z,74.09
2022-10-11T16:48:37.398Z,72.77
2022-10-11T16:51:06.812Z,72.23
2022-10-11T16:53:34.957Z,74.42
2022-10-11T16:56:10.127Z,73.52
2022-10-11T16:58:41.698Z,73.28
2022-10-11T17:01:11.047Z,73.89
2022-10-11T17:03:39.566Z,74.87
2022-10-11T17:06:07.791Z,74.47
2022-10-11T17:08:36.311Z,74.83
2022-10-11T17:11:06.507Z,75.07
2022-10-11T17:13:34.771Z,75.20
2022-10-11T17:16:03.066Z,75.29
2022-10-11T17:18:32.208Z,75.85
2022-10-11T17:21:03.845Z,75.11
2022-10-11T17:23:37.913Z,75.33
2022-10-11T17:26:11.224Z,75.41
2022-10-11T17:28:39.775Z,75.85
2022-10-11T17:31:14.070Z,76.91
2022-10-11T17:33:41.955Z,75.47
2022-10-11T17:36:32.493Z,74.85
2022-10-11T17:39:06.133Z,75.54
2022-10-11T17:41:34.086Z,75.95
2022-10-11T17:44:02.163Z,75.87
2022-10-11T17:46:30.232Z,76.08
2022-10-11T17:48:58.829Z,75.82
2022-10-11T17:51:26.982Z,76.05
2022-10-11T17:53:57.476Z,75.66
2022-10-11T17:56:31.443Z,75.61
2022-10-11T17:59:10.437Z,75.50
2022-10-11T18:01:38.325Z,75.11
2022-10-11T18:04:06.328Z,74.57
2022-10-11T18:06:38.535Z,75.03
2022-10-11T18:09:07.134Z,75.39
2022-10-11T18:11:35.488Z,76.99
2022-10-11T18:14:03.917Z,76.79
2022-10-11T18:16:32.620Z,77.30
2022-10-11T18:19:02.507Z,76.91
2022-10-11T18:21:34.300Z,77.13
2022-10-11T18:24:05.549Z,77.19
2022-10-11T18:26:33.777Z,76.96
2022-10-11T18:29:01.438Z,77.01
2022-10-11T18:31:31.750Z,77.17
2022-10-11T18:33:59.695Z,76.68
2022-10-11T18:36:29.713Z,76.41
2022-10-11T18:39:01.255Z,77.08
2022-10-11T18:41:30.940Z,76.81
2022-10-11T18:44:02.437Z,77.06
2022-10-11T18:46:30.662Z,77.35
2022-10-11T18:48:59.587Z,76.97
2022-10-11T18:51:32.981Z,76.36
2022-10-11T18:54:05.655Z,76.33
2022-10-11T18:56:35.895Z,76.35
2022-10-11T18:59:05.377Z,75.89
2022-10-11T19:01:41.559Z,75.93
2022-10-11T19:04:11.336Z,76.12
2022-10-11T19:06:42.136Z,76.48
2022-10-11T19:09:13.170Z,77.04
2022-10-11T19:11:41.323Z,77.10
2022-10-11T19:14:11.572Z,77.30
2022-10-11T19:16:41.734Z,77.14
2022-10-11T19:19:11.601Z,77.25
2022-10-11T19:21:39.482Z,76.99
2022-10-11T19:24:07.560Z,77.00
2022-10-11T19:26:37.416Z,77.15
2022-10-11T19:29:17.113Z,77.10
2022-10-11T19:31:50.128Z,77.39
2022-10-11T19:34:18.382Z,77.62
2022-10-11T19:36:46.467Z,77.79
2022-10-11T19:39:18.134Z,78.27
2022-10-11T19:41:46.530Z,78.29
2022-10-11T19:44:14.435Z,78.29
2022-10-11T19:46:51.469Z,78.67
2022-10-11T19:49:22.894Z,77.59
2022-10-11T19:51:51.595Z,77.22
2022-10-11T19:54:19.618Z,78.94
2022-10-11T19:56:47.372Z,79.51
2022-10-11T19:59:15.675Z,79.01
2022-10-11T20:01:46.836Z,77.92
2022-10-11T20:07:08.157Z,79.28
2022-10-11T20:09:36.085Z,79.66
2022-10-11T20:12:03.811Z,79.97
2022-10-11T20:14:31.489Z,79.61
2022-10-11T20:16:59.345Z,79.34
2022-10-11T20:19:30.710Z,79.52
2022-10-11T20:22:00.483Z,79.58
2022-10-11T20:24:28.499Z,79.50
2022-10-11T20:26:56.173Z,79.37
2022-10-11T20:29:24.921Z,79.37
2022-10-11T20:31:52.621Z,79.67
2022-10-11T20:34:20.449Z,79.51
2022-10-11T20:36:49.428Z,79.99
2022-10-11T20:39:17.162Z,80.15
2022-10-11T20:41:44.832Z,80.17
2022-10-11T20:44:12.746Z,79.93
2022-10-11T20:46:40.400Z,80.39
2022-10-11T20:49:10.162Z,81.20
2022-10-11T20:51:39.265Z,81.64
2022-10-11T20:54:07.248Z,81.43
2022-10-11T20:56:35.224Z,80.77
2022-10-11T20:59:03.390Z,80.97
2022-10-11T21:01:33.491Z,80.32
2022-10-11T21:04:01.716Z,80.18
2022-10-11T21:06:30.784Z,80.73
2022-10-11T21:08:59.319Z,80.81
2022-10-11T21:11:31.691Z,80.82
2022-10-11T21:14:01.681Z,80.84
2022-10-11T21:16:29.395Z,81.16
2022-10-11T21:18:58.412Z,80.92
2022-10-11T21:21:27.404Z,80.10
2022-10-11T21:24:02.168Z,80.46
2022-10-11T21:26:30.838Z,80.04
2022-10-11T21:28:58.649Z,80.61
2022-10-11T21:31:31.099Z,80.66
2022-10-11T21:34:02.183Z,79.74
2022-10-11T21:36:29.770Z,79.70
2022-10-11T21:38:57.437Z,79.77
2022-10-11T21:41:26.984Z,79.92
2022-10-11T21:43:54.594Z,80.00
2022-10-11T21:46:47.530Z,79.83
2022-10-11T21:49:15.827Z,80.75
2022-10-11T21:51:43.570Z,80.89
2022-10-11T21:54:11.492Z,80.47
2022-10-11T21:56:39.530Z,81.92
2022-10-11T21:59:11.087Z,80.60
2022-10-11T22:01:40.954Z,80.17
2022-10-11T22:04:09.302Z,79.71
2022-10-11T22:06:37.528Z,79.35
2022-10-11T22:09:05.915Z,79.54
2022-10-11T22:11:34.222Z,79.24
2022-10-11T22:14:01.848Z,78.57
2022-10-11T22:16:29.562Z,79.54
2022-10-11T22:18:57.633Z,79.71
2022-10-11T22:21:25.328Z,79.66
2022-10-11T22:23:53.926Z,79.85
2022-10-11T22:26:24.585Z,79.72
2022-10-11T22:28:52.657Z,80.07
2022-10-11T22:31:21.392Z,80.18
2022-10-11T22:33:53.501Z,80.02
2022-10-11T22:36:21.256Z,79.56
2022-10-11T22:38:49.336Z,79.72
2022-10-11T22:41:17.021Z,79.66
2022-10-11T22:43:44.670Z,79.47
2022-10-11T22:46:12.566Z,80.07
2022-10-11T22:48:40.509Z,79.94
2022-10-11T22:51:08.142Z,79.58
2022-10-11T22:53:36.075Z,78.94
2022-10-11T22:56:03.731Z,79.25
2022-10-11T22:58:31.326Z,79.18
2022-10-11T23:01:06.581Z,78.90
2022-10-11T23:03:34.232Z,79.07
2022-10-11T23:06:02.565Z,79.42
2022-10-11T23:08:30.487Z,79.63
2022-10-11T23:11:03.224Z,79.16
2022-10-11T23:13:31.191Z,79.19
2022-10-11T23:15:58.905Z,79.46
2022-10-11T23:18:26.587Z,80.24
2022-10-11T23:20:54.645Z,80.28
2022-10-11T23:23:22.153Z,79.82
2022-10-11T23:25:49.992Z,79.81
2022-10-11T23:28:18.040Z,80.21
2022-10-11T23:30:45.680Z,80.75
2022-10-11T23:33:13.301Z,83.50
2022-10-11T23:35:41.291Z,83.69
2022-10-11T23:38:08.925Z,83.39
2022-10-11T23:40:38.187Z,83.24
2022-10-11T23:43:06.522Z,82.91
2022-10-11T23:45:34.111Z,83.37
2022-10-11T23:48:01.812Z,82.08
2022-10-11T23:50:29.734Z,84.15
2022-10-11T23:52:57.295Z,84.85
2022-10-11T23:55:24.914Z,83.45
2022-10-11T23:57:52.920Z,82.23
